x

Central Aleutians 230nm Sw Dutch Harbor (46072) Wave Buoy

6:50 - Tue 27th Jan 2015 All times are UTC.

  • Sig Wave height 12.5ft
  • Peak Period 13s
  • Average Period 7s
  • Wind
    29mph, 38mph gusts
  • Sea Temp 42°f
  • Air Temp 38°f
  • Sea Pressure 992.7mb

More Historic Weather Station data

Upgrade to MSW Pro to gain access to the past 30 days of data for over 8000 Wavebouys and Weather Stations around the globe.

Join Pro

Comparision Forecast

View Surf forecast
   
mar. 01/27 6:50 12.5ft 13s 7s 29 38 mph 992.7mb 42f 38f
5:50 12ft 11s 6s 29 36 mph 992mb 41f 38f
4:50 13ft 11s 7s 31 38 mph 991.1mb 41f 38f
3:50 12ft 11s 7s 31 38 mph 990.5mb 41f 37f
2:50 10ft 13s 7s 27 31 mph 990.1mb 41f 37f
1:50 11ft 14s 8s 18 25 mph 989.6mb 41f 38f
12:50 11ft 13s 7s 22 27 mph 989.3mb 41f 38f
lun. 01/26 11:50 12ft 15s 8s 18 20 mph 989.6mb 41f 36f
10:50 12ft 14s 8s 13 16 mph 989.9mb 41f 36f
9:50 12ft 16s 8s 13 18 mph 990.1mb 41f 37f
8:50 12ft 11s 8s 11 13 mph 989.7mb 41f 39f
7:50 12ft 14s 8s 4 9 mph 989.4mb 41f 39f
6:50 11ft 9s 8s 7 11 mph 989mb 41f 40f
5:50 13ft 16s 8s 4 7 mph 988.7mb 41f 39f
4:50 12.5ft 16s 8s 4 9 mph 988.2mb 41f 39f
3:50 12.5ft 8s 8s 7 11 mph 988mb 41f 39f
2:50 12ft 8s 8s 4 7 mph 988.1mb 41f 39f
1:50 11.5ft 8s 8s 7 9 mph 988.3mb 41f 39f
12:50 11.5ft 17s 8s 11 13 mph 988.3mb 41f 39f
11:50 11ft 17s 8s 13 16 mph 988.3mb 41f 40f
10:50 11ft 17s 8s 13 18 mph 988.3mb 41f 40f
9:50 10.5ft 19s 8s 16 20 mph 988.1mb 41f 39f
8:50 10ft 8s 7s 9 13 mph 988.1mb 41f 38f
7:50 10.5ft 8s 7s 16 18 mph 987.7mb 41f 38f
6:50 10ft 8s 6s 20 22 mph 987.4mb 41f 38f
5:50 10ft 7s 6s 22 25 mph 987.2mb 41f 38f
4:50 10ft 7s 6s 25 27 mph 987mb 40f 38f
3:50 10ft 7s 6s 25 29 mph 987.4mb 41f 38f
2:50 10ft 7s 6s 27 31 mph 987.5mb 41f 37f
1:50 8.5ft 6s 5s 22 27 mph 988.1mb 41f 38f
12:50 7.5ft 6s 5s 22 27 mph 988.6mb 41f 38f
dim. 01/25 11:50 7ft 6s 5s 22 27 mph 989.5mb 41f 37f
10:50 6ft 6s 5s 22 27 mph 990.4mb 41f 38f
9:50 6ft 6s 5s 22 27 mph 991.5mb 41f 37f
8:50 6.5ft 6s 5s 20 25 mph 992.2mb 41f 38f
7:50 6ft 6s 5s 18 22 mph 992.8mb 41f 37f
6:50 6ft 6s 5s 20 25 mph 993.3mb 41f 36f
5:50 6ft 6s 5s 18 22 mph 993.9mb 41f 36f
4:50 6.5ft 6s 5s 18 22 mph 994.7mb 41f 35f
3:50 6ft 6s 5s 20 25 mph 995.3mb 41f 37f
2:50 7ft 6s 5s 20 22 mph 996.4mb 41f 36f
1:50 7ft 6s 5s 22 25 mph 997.4mb 41f 37f
12:50 6.5ft 6s 5s 22 27 mph 998mb 41f 37f
11:50 7ft 5s 5s 22 27 mph 998.7mb 41f 36f
10:50 6.5ft 6s 5s 20 25 mph 999.4mb 41f 38f
9:50 6.5ft 10s 5s 20 25 mph 1000.1mb 41f 38f
8:50 6ft 9s 5s 18 22 mph 1000.8mb 41f 38f
7:50 6.5ft 10s 5s 18 22 mph 1001.6mb 41f 35f
6:50 6ft 11s 5s 20 25 mph 1002mb 41f 37f
5:50 6ft 10s 5s 16 20 mph 1002.5mb 41f 35f
4:50 7ft 9s 6s 16 18 mph 1002.8mb 41f 36f
3:50 6ft 8s 5s 13 18 mph 1003.4mb 41f 37f
2:50 6ft 10s 6s 16 20 mph 1003.8mb 40f 37f
1:50 7ft 10s 6s 13 18 mph 1004.2mb 40f 37f
12:50 6.5ft 11s 6s 18 20 mph 1004.8mb 40f 38f
sam. 01/24 11:50 6.5ft 11s 6s 16 25 mph 1005.7mb 40f 35f
10:50 7ft 10s 7s 18 22 mph 1007mb 40f 34f
9:50 6.5ft 11s 8s 16 18 mph 1007.8mb 40f 36f
8:50 6.5ft 9s 8s 11 13 mph 1008.5mb 40f 36f
7:50 6.5ft 10s 8s 7 9 mph 1009mb 41f 36f
6:50 6.5ft 11s 8s 16 18 mph 1008.7mb 41f 36f
5:50 6ft 11s 7s 7 9 mph 1009mb 41f 36f
4:50 6ft 12s 7s 7 11 mph 1009mb 41f 36f
3:50 7ft 11s 7s 4 11 mph 1009.2mb 41f 35f
2:50 8ft 11s 7s 4 9 mph 1010.1mb 41f 35f
1:50 9ft 11s 7s 13 16 mph 1010.3mb 41f 36f
12:50 7.5ft 9s 6s 11 16 mph 1010.4mb 41f 36f
11:50 9ft 11s 7s 9 13 mph 1010.7mb 41f 36f
10:50 8.5ft 11s 7s 2 4 mph 1010.9mb 41f 36f
9:50 9ft 11s 7s 11 16 mph 1010.5mb 41f 36f
8:50 9.5ft 12s 7s 16 20 mph 1010.3mb 41f 36f
7:50 9.5ft 12s 7s 11 18 mph 1010.7mb 41f 36f
6:50 10ft 11s 7s 20 25 mph 1010.1mb 41f 36f
5:50 9ft 12s 6s 16 25 mph 1009.9mb 41f 35f
4:50 11ft 13s 7s 20 25 mph 1009.4mb 41f 36f
3:50 12ft 12s 7s 20 27 mph 1009mb 40f 36f
2:50 14ft 12s 7s 20 25 mph 1008.6mb 40f 35f
1:50 14.5ft 11s 7s 20 25 mph 1008mb 40f 35f
12:50 14ft 11s 7s 22 27 mph 1007.7mb 40f 35f
ven. 01/23 11:50 15.5ft 10s 7s 22 31 mph 1007.3mb 40f 35f
10:50 15.5ft 12s 7s 25 29 mph 1007mb 40f 35f
9:50 16ft 11s 8s 25 29 mph 1007mb 41f 36f
8:50 16ft 13s 8s 27 34 mph 1006.6mb 41f 35f
7:50 15ft 13s 8s 27 36 mph 1005.8mb 41f 36f
6:50 14ft 12s 7s 27 34 mph 1004.9mb 41f 36f
5:50 14ft 14s 7s 29 36 mph 1003.8mb 41f 36f
4:50 13ft 14s 7s 29 36 mph 1002.9mb 41f 36f
3:50 13.5ft 12s 7s 29 36 mph 1002.2mb 41f 36f
2:50 15ft 13s 7s 31 40 mph 1001.3mb 41f 36f
1:50 16ft 11s 7s 31 40 mph 1000.6mb 40f 35f
12:50 18.5ft 11s 8s 31 38 mph 1000mb 40f 35f
11:50 17.5ft 11s 8s 29 43 mph 999.3mb 40f 36f
10:50 20.5ft 12s 8s 34 40 mph 998.3mb 40f 36f
9:50 18.5ft 12s 8s 31 40 mph 998mb 40f 36f
8:50 19.5ft 12s 8s 31 38 mph 997mb 40f 36f